sensor_id;sensor_type;location;lat;lon;timestamp;temperature;humidity
5246;DHT22;54412;51.206;6.888;2024-02-21T00:00:56;10.20;99.90
5246;DHT22;54412;51.206;6.888;2024-02-21T00:03:22;10.20;99.90
5246;DHT22;54412;51.206;6.888;2024-02-21T00:05:47;10.20;99.90
5246;DHT22;54412;51.206;6.888;2024-02-21T00:08:13;10.10;99.90
5246;DHT22;54412;51.206;6.888;2024-02-21T00:10:39;10.10;99.90
5246;DHT22;54412;51.206;6.888;2024-02-21T00:13:04;10.20;99.90
5246;DHT22;54412;51.206;6.888;2024-02-21T00:15:30;10.20;99.90
5246;DHT22;54412;51.206;6.888;2024-02-21T00:17:55;10.20;99.90
5246;DHT22;54412;51.206;6.888;2024-02-21T00:20:21;10.00;99.90
5246;DHT22;54412;51.206;6.888;2024-02-21T00:22:47;10.10;99.90
5246;DHT22;54412;51.206;6.888;2024-02-21T00:25:12;10.00;99.90
5246;DHT22;54412;51.206;6.888;2024-02-21T00:27:38;9.90;99.90
5246;DHT22;54412;51.206;6.888;2024-02-21T00:30:05;10.10;99.90
5246;DHT22;54412;51.206;6.888;2024-02-21T00:32:31;10.20;99.90
5246;DHT22;54412;51.206;6.888;2024-02-21T00:34:59;10.20;99.90
5246;DHT22;54412;51.206;6.888;2024-02-21T00:37:25;10.20;99.90
5246;DHT22;54412;51.206;6.888;2024-02-21T00:39:50;10.20;99.90
5246;DHT22;54412;51.206;6.888;2024-02-21T00:42:16;10.20;99.90
5246;DHT22;54412;51.206;6.888;2024-02-21T00:44:41;10.10;99.90
5246;DHT22;54412;51.206;6.888;2024-02-21T00:47:07;10.10;99.90
5246;DHT22;54412;51.206;6.888;2024-02-21T00:49:33;10.00;99.90
5246;DHT22;54412;51.206;6.888;2024-02-21T00:51:58;10.10;99.90
5246;DHT22;54412;51.206;6.888;2024-02-21T00:54:24;10.20;99.90
5246;DHT22;54412;51.206;6.888;2024-02-21T00:56:50;10.10;99.90
5246;DHT22;54412;51.206;6.888;2024-02-21T00:59:15;10.10;99.90
5246;DHT22;54412;51.206;6.888;2024-02-21T01:01:41;10.10;99.90
5246;DHT22;54412;51.206;6.888;2024-02-21T01:04:08;10.10;99.90
5246;DHT22;54412;51.206;6.888;2024-02-21T01:06:35;10.20;99.90
5246;DHT22;54412;51.206;6.888;2024-02-21T01:09:01;10.20;99.90
5246;DHT22;54412;51.206;6.888;2024-02-21T01:11:27;10.10;99.90
5246;DHT22;54412;51.206;6.888;2024-02-21T01:13:53;10.10;99.90
5246;DHT22;54412;51.206;6.888;2024-02-21T01:16:20;10.20;99.90
5246;DHT22;54412;51.206;6.888;2024-02-21T01:18:45;10.20;99.90
5246;DHT22;54412;51.206;6.888;2024-02-21T01:21:11;10.20;99.90
5246;DHT22;54412;51.206;6.888;2024-02-21T01:23:37;10.20;99.90
5246;DHT22;54412;51.206;6.888;2024-02-21T01:26:03;10.30;99.90
5246;DHT22;54412;51.206;6.888;2024-02-21T01:28:30;10.20;99.90
5246;DHT22;54412;51.206;6.888;2024-02-21T01:30:58;10.30;99.90
5246;DHT22;54412;51.206;6.888;2024-02-21T01:33:24;10.20;99.90
5246;DHT22;54412;51.206;6.888;2024-02-21T01:35:49;10.20;99.90
5246;DHT22;54412;51.206;6.888;2024-02-21T01:38:15;10.20;99.90
5246;DHT22;54412;51.206;6.888;2024-02-21T01:40:41;10.20;99.90
5246;DHT22;54412;51.206;6.888;2024-02-21T01:43:19;10.10;99.90
5246;DHT22;54412;51.206;6.888;2024-02-21T01:45:52;10.10;99.90
5246;DHT22;54412;51.206;6.888;2024-02-21T01:48:21;10.20;99.90
5246;DHT22;54412;51.206;6.888;2024-02-21T01:50:49;10.30;99.90
5246;DHT22;54412;51.206;6.888;2024-02-21T01:53:24;10.30;99.90
5246;DHT22;54412;51.206;6.888;2024-02-21T01:55:53;10.20;99.90
5246;DHT22;54412;51.206;6.888;2024-02-21T01:58:22;10.20;99.90
5246;DHT22;54412;51.206;6.888;2024-02-21T02:00:50;10.30;99.90
5246;DHT22;54412;51.206;6.888;2024-02-21T02:03:16;10.30;99.90
5246;DHT22;54412;51.206;6.888;2024-02-21T02:05:44;10.20;99.90
5246;DHT22;54412;51.206;6.888;2024-02-21T02:08:12;10.10;99.90
5246;DHT22;54412;51.206;6.888;2024-02-21T02:10:39;10.00;99.90
5246;DHT22;54412;51.206;6.888;2024-02-21T02:13:06;10.20;99.90
5246;DHT22;54412;51.206;6.888;2024-02-21T02:15:43;10.10;99.90
5246;DHT22;54412;51.206;6.888;2024-02-21T02:18:10;10.00;99.90
5246;DHT22;54412;51.206;6.888;2024-02-21T02:20:36;10.00;99.90
5246;DHT22;54412;51.206;6.888;2024-02-21T02:23:10;10.10;99.90
5246;DHT22;54412;51.206;6.888;2024-02-21T02:25:39;10.10;99.90
5246;DHT22;54412;51.206;6.888;2024-02-21T02:28:08;9.90;99.90
5246;DHT22;54412;51.206;6.888;2024-02-21T02:30:35;10.00;99.90
5246;DHT22;54412;51.206;6.888;2024-02-21T02:33:02;10.00;99.90
5246;DHT22;54412;51.206;6.888;2024-02-21T02:35:31;10.00;99.90
5246;DHT22;54412;51.206;6.888;2024-02-21T02:37:58;10.10;99.90
5246;DHT22;54412;51.206;6.888;2024-02-21T02:40:24;10.00;99.90
5246;DHT22;54412;51.206;6.888;2024-02-21T02:42:50;9.90;99.90
5246;DHT22;54412;51.206;6.888;2024-02-21T02:45:17;9.90;99.90
5246;DHT22;54412;51.206;6.888;2024-02-21T02:47:46;10.00;99.90
5246;DHT22;54412;51.206;6.888;2024-02-21T02:50:13;10.00;99.90
5246;DHT22;54412;51.206;6.888;2024-02-21T02:52:39;10.00;99.90
5246;DHT22;54412;51.206;6.888;2024-02-21T02:55:05;9.90;99.90
5246;DHT22;54412;51.206;6.888;2024-02-21T02:57:32;9.90;99.90
5246;DHT22;54412;51.206;6.888;2024-02-21T02:59:58;10.10;99.90
5246;DHT22;54412;51.206;6.888;2024-02-21T03:02:24;10.10;99.90
5246;DHT22;54412;51.206;6.888;2024-02-21T03:04:49;9.90;99.90
5246;DHT22;54412;51.206;6.888;2024-02-21T03:07:15;10.00;99.90
5246;DHT22;54412;51.206;6.888;2024-02-21T03:09:41;10.10;99.90
5246;DHT22;54412;51.206;6.888;2024-02-21T03:12:10;10.10;99.90
5246;DHT22;54412;51.206;6.888;2024-02-21T03:14:36;10.00;99.90
5246;DHT22;54412;51.206;6.888;2024-02-21T03:17:02;10.10;99.90
5246;DHT22;54412;51.206;6.888;2024-02-21T03:19:29;9.90;99.90
5246;DHT22;54412;51.206;6.888;2024-02-21T03:21:55;9.80;99.90
5246;DHT22;54412;51.206;6.888;2024-02-21T03:24:21;9.80;99.90
5246;DHT22;54412;51.206;6.888;2024-02-21T03:26:47;9.90;99.90
5246;DHT22;54412;51.206;6.888;2024-02-21T03:29:15;10.00;99.90
5246;DHT22;54412;51.206;6.888;2024-02-21T03:31:42;10.00;99.90
5246;DHT22;54412;51.206;6.888;2024-02-21T03:34:10;10.00;99.90
5246;DHT22;54412;51.206;6.888;2024-02-21T03:36:36;10.00;99.90
5246;DHT22;54412;51.206;6.888;2024-02-21T03:39:02;9.90;99.90
5246;DHT22;54412;51.206;6.888;2024-02-21T03:41:28;9.90;99.90
5246;DHT22;54412;51.206;6.888;2024-02-21T03:43:54;9.90;99.90
5246;DHT22;54412;51.206;6.888;2024-02-21T03:46:19;10.00;99.90
5246;DHT22;54412;51.206;6.888;2024-02-21T03:48:45;9.80;99.90
5246;DHT22;54412;51.206;6.888;2024-02-21T03:51:11;9.90;99.90
5246;DHT22;54412;51.206;6.888;2024-02-21T03:53:37;9.90;99.90
5246;DHT22;54412;51.206;6.888;2024-02-21T03:56:03;9.90;99.90
5246;DHT22;54412;51.206;6.888;2024-02-21T03:58:30;9.80;99.90
5246;DHT22;54412;51.206;6.888;2024-02-21T04:00:56;9.80;99.90
5246;DHT22;54412;51.206;6.888;2024-02-21T04:03:22;9.80;99.90
5246;DHT22;54412;51.206;6.888;2024-02-21T04:05:48;10.00;99.90
5246;DHT22;54412;51.206;6.888;2024-02-21T04:08:13;9.90;99.90
5246;DHT22;54412;51.206;6.888;2024-02-21T04:10:39;9.90;99.90
5246;DHT22;54412;51.206;6.888;2024-02-21T04:13:06;9.90;99.90
5246;DHT22;54412;51.206;6.888;2024-02-21T04:15:32;10.00;99.90
5246;DHT22;54412;51.206;6.888;2024-02-21T04:17:58;10.00;99.90
5246;DHT22;54412;51.206;6.888;2024-02-21T04:20:24;10.00;99.90
5246;DHT22;54412;51.206;6.888;2024-02-21T04:22:49;10.00;99.90
5246;DHT22;54412;51.206;6.888;2024-02-21T04:25:15;10.00;99.90
5246;DHT22;54412;51.206;6.888;2024-02-21T04:27:41;9.90;99.90
5246;DHT22;54412;51.206;6.888;2024-02-21T04:30:07;9.80;99.90
5246;DHT22;54412;51.206;6.888;2024-02-21T04:32:35;9.90;99.90
5246;DHT22;54412;51.206;6.888;2024-02-21T04:35:01;10.00;99.90
5246;DHT22;54412;51.206;6.888;2024-02-21T04:37:26;9.90;99.90
5246;DHT22;54412;51.206;6.888;2024-02-21T04:39:52;9.70;99.90
5246;DHT22;54412;51.206;6.888;2024-02-21T04:42:19;9.80;99.90
5246;DHT22;54412;51.206;6.888;2024-02-21T04:44:44;10.00;99.90
5246;DHT22;54412;51.206;6.888;2024-02-21T04:47:10;10.00;99.90
5246;DHT22;54412;51.206;6.888;2024-02-21T04:49:36;9.90;99.90
5246;DHT22;54412;51.206;6.888;2024-02-21T04:52:02;9.80;99.90
5246;DHT22;54412;51.206;6.888;2024-02-21T04:54:27;9.90;99.90
5246;DHT22;54412;51.206;6.888;2024-02-21T04:56:53;10.00;99.90
5246;DHT22;54412;51.206;6.888;2024-02-21T04:59:19;9.90;99.90
5246;DHT22;54412;51.206;6.888;2024-02-21T05:01:44;10.00;99.90
5246;DHT22;54412;51.206;6.888;2024-02-21T05:04:10;9.80;99.90
5246;DHT22;54412;51.206;6.888;2024-02-21T05:06:39;9.90;99.90
5246;DHT22;54412;51.206;6.888;2024-02-21T05:09:07;9.90;99.90
5246;DHT22;54412;51.206;6.888;2024-02-21T05:11:36;10.00;99.90
5246;DHT22;54412;51.206;6.888;2024-02-21T05:14:05;9.90;99.90
5246;DHT22;54412;51.206;6.888;2024-02-21T05:16:32;9.90;99.90
5246;DHT22;54412;51.206;6.888;2024-02-21T05:18:57;10.00;99.90
5246;DHT22;54412;51.206;6.888;2024-02-21T05:21:24;10.00;99.90
5246;DHT22;54412;51.206;6.888;2024-02-21T05:23:50;9.90;99.90
5246;DHT22;54412;51.206;6.888;2024-02-21T05:26:26;9.90;99.90
5246;DHT22;54412;51.206;6.888;2024-02-21T05:28:53;9.90;99.90
5246;DHT22;54412;51.206;6.888;2024-02-21T05:31:19;9.90;99.90
5246;DHT22;54412;51.206;6.888;2024-02-21T05:33:45;9.90;99.90
5246;DHT22;54412;51.206;6.888;2024-02-21T05:36:12;9.90;99.90
5246;DHT22;54412;51.206;6.888;2024-02-21T05:38:39;9.90;99.90
5246;DHT22;54412;51.206;6.888;2024-02-21T05:41:05;10.00;99.90
5246;DHT22;54412;51.206;6.888;2024-02-21T05:43:31;10.00;99.90
5246;DHT22;54412;51.206;6.888;2024-02-21T05:45:57;10.00;99.90
5246;DHT22;54412;51.206;6.888;2024-02-21T05:48:23;9.80;99.90
5246;DHT22;54412;51.206;6.888;2024-02-21T05:50:49;10.00;99.90
5246;DHT22;54412;51.206;6.888;2024-02-21T05:53:15;10.00;99.90
5246;DHT22;54412;51.206;6.888;2024-02-21T05:55:41;10.10;99.90
5246;DHT22;54412;51.206;6.888;2024-02-21T05:58:07;10.00;99.90
5246;DHT22;54412;51.206;6.888;2024-02-21T06:00:35;10.00;99.90
5246;DHT22;54412;51.206;6.888;2024-02-21T06:03:02;10.00;99.90
5246;DHT22;54412;51.206;6.888;2024-02-21T06:05:28;10.00;99.90
5246;DHT22;54412;51.206;6.888;2024-02-21T06:07:54;10.10;99.90
5246;DHT22;54412;51.206;6.888;2024-02-21T06:10:19;10.10;99.90
5246;DHT22;54412;51.206;6.888;2024-02-21T06:12:45;10.20;99.90
5246;DHT22;54412;51.206;6.888;2024-02-21T06:15:11;10.20;99.90
5246;DHT22;54412;51.206;6.888;2024-02-21T06:17:36;10.10;99.90
5246;DHT22;54412;51.206;6.888;2024-02-21T06:20:02;10.20;99.90
5246;DHT22;54412;51.206;6.888;2024-02-21T06:22:29;10.30;99.90
5246;DHT22;54412;51.206;6.888;2024-02-21T06:24:55;10.10;99.90
5246;DHT22;54412;51.206;6.888;2024-02-21T06:27:21;10.10;99.90
5246;DHT22;54412;51.206;6.888;2024-02-21T06:29:47;10.10;99.90
5246;DHT22;54412;51.206;6.888;2024-02-21T06:32:12;10.10;99.90
5246;DHT22;54412;51.206;6.888;2024-02-21T06:34:38;10.20;99.90
5246;DHT22;54412;51.206;6.888;2024-02-21T06:37:04;10.20;99.90
5246;DHT22;54412;51.206;6.888;2024-02-21T06:39:29;10.10;99.90
5246;DHT22;54412;51.206;6.888;2024-02-21T06:41:55;10.00;99.90
5246;DHT22;54412;51.206;6.888;2024-02-21T06:44:24;9.90;99.90
5246;DHT22;54412;51.206;6.888;2024-02-21T06:46:49;10.00;99.90
5246;DHT22;54412;51.206;6.888;2024-02-21T06:49:15;10.00;99.90
5246;DHT22;54412;51.206;6.888;2024-02-21T06:51:44;10.00;99.90
5246;DHT22;54412;51.206;6.888;2024-02-21T06:54:10;10.00;99.90
5246;DHT22;54412;51.206;6.888;2024-02-21T06:56:36;10.00;99.90
5246;DHT22;54412;51.206;6.888;2024-02-21T06:59:03;10.00;99.90
5246;DHT22;54412;51.206;6.888;2024-02-21T07:01:29;10.00;99.90
5246;DHT22;54412;51.206;6.888;2024-02-21T07:03:55;9.90;99.90
5246;DHT22;54412;51.206;6.888;2024-02-21T07:06:22;10.00;99.90
5246;DHT22;54412;51.206;6.888;2024-02-21T07:08:48;9.80;99.90
5246;DHT22;54412;51.206;6.888;2024-02-21T07:11:13;9.80;99.90
5246;DHT22;54412;51.206;6.888;2024-02-21T07:13:39;10.00;99.90
5246;DHT22;54412;51.206;6.888;2024-02-21T07:16:06;9.90;99.90
5246;DHT22;54412;51.206;6.888;2024-02-21T07:18:32;10.00;99.90
5246;DHT22;54412;51.206;6.888;2024-02-21T07:20:58;9.90;99.90
5246;DHT22;54412;51.206;6.888;2024-02-21T07:23:24;9.90;99.90
5246;DHT22;54412;51.206;6.888;2024-02-21T07:25:50;10.00;99.90
5246;DHT22;54412;51.206;6.888;2024-02-21T07:28:16;9.90;99.90
5246;DHT22;54412;51.206;6.888;2024-02-21T07:30:42;10.00;99.90
5246;DHT22;54412;51.206;6.888;2024-02-21T07:33:11;9.80;99.90
5246;DHT22;54412;51.206;6.888;2024-02-21T07:35:37;9.80;99.90
5246;DHT22;54412;51.206;6.888;2024-02-21T07:38:04;10.00;99.90
5246;DHT22;54412;51.206;6.888;2024-02-21T07:40:30;9.80;99.90
5246;DHT22;54412;51.206;6.888;2024-02-21T07:46:37;9.90;99.90
5246;DHT22;54412;51.206;6.888;2024-02-21T07:49:03;9.90;99.90
5246;DHT22;54412;51.206;6.888;2024-02-21T07:51:28;9.90;99.90
5246;DHT22;54412;51.206;6.888;2024-02-21T07:53:54;9.90;99.90
5246;DHT22;54412;51.206;6.888;2024-02-21T07:56:21;9.80;99.90
5246;DHT22;54412;51.206;6.888;2024-02-21T07:58:47;9.80;99.90
5246;DHT22;54412;51.206;6.888;2024-02-21T08:01:18;9.80;99.90
5246;DHT22;54412;51.206;6.888;2024-02-21T08:03:46;10.00;99.90
5246;DHT22;54412;51.206;6.888;2024-02-21T08:06:13;9.90;99.90
5246;DHT22;54412;51.206;6.888;2024-02-21T08:08:39;9.80;99.90
5246;DHT22;54412;51.206;6.888;2024-02-21T08:11:05;9.80;99.90
5246;DHT22;54412;51.206;6.888;2024-02-21T08:13:31;9.80;99.90
5246;DHT22;54412;51.206;6.888;2024-02-21T08:15:57;9.90;99.90
5246;DHT22;54412;51.206;6.888;2024-02-21T08:18:22;9.90;99.90
5246;DHT22;54412;51.206;6.888;2024-02-21T08:20:48;9.60;99.90
5246;DHT22;54412;51.206;6.888;2024-02-21T08:23:18;9.50;99.90
5246;DHT22;54412;51.206;6.888;2024-02-21T08:25:44;9.70;99.90
5246;DHT22;54412;51.206;6.888;2024-02-21T08:28:11;9.80;99.90
5246;DHT22;54412;51.206;6.888;2024-02-21T08:30:38;9.70;99.90
5246;DHT22;54412;51.206;6.888;2024-02-21T08:33:04;9.70;99.90
5246;DHT22;54412;51.206;6.888;2024-02-21T08:35:29;9.70;99.90
5246;DHT22;54412;51.206;6.888;2024-02-21T08:37:55;9.80;99.90
5246;DHT22;54412;51.206;6.888;2024-02-21T08:40:21;9.70;99.90
5246;DHT22;54412;51.206;6.888;2024-02-21T08:42:47;9.90;99.90
5246;DHT22;54412;51.206;6.888;2024-02-21T08:45:13;9.80;99.90
5246;DHT22;54412;51.206;6.888;2024-02-21T08:47:42;9.80;99.90
5246;DHT22;54412;51.206;6.888;2024-02-21T08:50:08;9.70;99.90
5246;DHT22;54412;51.206;6.888;2024-02-21T08:52:37;9.70;99.90
5246;DHT22;54412;51.206;6.888;2024-02-21T08:55:03;9.60;99.90
5246;DHT22;54412;51.206;6.888;2024-02-21T08:57:29;9.60;99.90
5246;DHT22;54412;51.206;6.888;2024-02-21T09:00:05;9.60;99.90
5246;DHT22;54412;51.206;6.888;2024-02-21T09:02:38;9.70;99.90
5246;DHT22;54412;51.206;6.888;2024-02-21T09:05:05;9.80;99.90
5246;DHT22;54412;51.206;6.888;2024-02-21T09:07:31;9.70;99.90
5246;DHT22;54412;51.206;6.888;2024-02-21T09:09:57;9.60;99.90
5246;DHT22;54412;51.206;6.888;2024-02-21T09:12:22;9.60;99.90
5246;DHT22;54412;51.206;6.888;2024-02-21T09:14:48;9.60;99.90
5246;DHT22;54412;51.206;6.888;2024-02-21T09:17:19;9.80;99.90
5246;DHT22;54412;51.206;6.888;2024-02-21T09:19:46;9.80;99.90
5246;DHT22;54412;51.206;6.888;2024-02-21T09:22:13;9.80;99.90
5246;DHT22;54412;51.206;6.888;2024-02-21T09:24:39;9.80;99.90
5246;DHT22;54412;51.206;6.888;2024-02-21T09:27:05;9.80;99.90
5246;DHT22;54412;51.206;6.888;2024-02-21T09:29:31;9.80;99.90
5246;DHT22;54412;51.206;6.888;2024-02-21T09:31:59;9.80;99.90
5246;DHT22;54412;51.206;6.888;2024-02-21T09:34:25;9.80;99.90
5246;DHT22;54412;51.206;6.888;2024-02-21T09:36:50;9.90;99.90
5246;DHT22;54412;51.206;6.888;2024-02-21T09:39:16;9.70;99.90
5246;DHT22;54412;51.206;6.888;2024-02-21T09:41:49;9.90;99.90
5246;DHT22;54412;51.206;6.888;2024-02-21T09:44:19;9.90;99.90
5246;DHT22;54412;51.206;6.888;2024-02-21T09:47:02;9.90;99.90
5246;DHT22;54412;51.206;6.888;2024-02-21T09:49:34;9.90;99.90
5246;DHT22;54412;51.206;6.888;2024-02-21T09:52:04;9.80;99.90
5246;DHT22;54412;51.206;6.888;2024-02-21T09:54:33;9.90;99.90
5246;DHT22;54412;51.206;6.888;2024-02-21T09:57:03;9.80;99.90
5246;DHT22;54412;51.206;6.888;2024-02-21T09:59:31;10.00;99.90
5246;DHT22;54412;51.206;6.888;2024-02-21T10:01:58;10.00;99.90
5246;DHT22;54412;51.206;6.888;2024-02-21T10:04:28;10.10;99.90
5246;DHT22;54412;51.206;6.888;2024-02-21T10:06:55;10.10;99.90
5246;DHT22;54412;51.206;6.888;2024-02-21T10:09:22;10.20;99.90
5246;DHT22;54412;51.206;6.888;2024-02-21T10:11:49;10.20;99.90
5246;DHT22;54412;51.206;6.888;2024-02-21T10:14:16;10.20;99.90
5246;DHT22;54412;51.206;6.888;2024-02-21T10:16:44;10.40;99.90
5246;DHT22;54412;51.206;6.888;2024-02-21T10:19:20;10.40;99.90
5246;DHT22;54412;51.206;6.888;2024-02-21T10:22:06;10.50;99.90
5246;DHT22;54412;51.206;6.888;2024-02-21T10:24:33;10.40;99.90
5246;DHT22;54412;51.206;6.888;2024-02-21T10:27:04;10.50;99.90
5246;DHT22;54412;51.206;6.888;2024-02-21T10:29:34;10.40;99.90
5246;DHT22;54412;51.206;6.888;2024-02-21T10:32:18;10.60;99.90
5246;DHT22;54412;51.206;6.888;2024-02-21T10:34:44;10.60;99.90
5246;DHT22;54412;51.206;6.888;2024-02-21T10:37:11;10.40;99.90
5246;DHT22;54412;51.206;6.888;2024-02-21T10:39:41;10.50;99.90
5246;DHT22;54412;51.206;6.888;2024-02-21T10:42:10;10.50;99.90
5246;DHT22;54412;51.206;6.888;2024-02-21T10:44:38;10.50;99.90
5246;DHT22;54412;51.206;6.888;2024-02-21T10:47:08;10.50;99.90
5246;DHT22;54412;51.206;6.888;2024-02-21T10:49:40;10.40;99.90
5246;DHT22;54412;51.206;6.888;2024-02-21T10:52:14;10.40;99.90
5246;DHT22;54412;51.206;6.888;2024-02-21T10:54:55;10.40;99.90
5246;DHT22;54412;51.206;6.888;2024-02-21T10:57:22;10.40;99.90
5246;DHT22;54412;51.206;6.888;2024-02-21T10:59:49;10.40;99.90
5246;DHT22;54412;51.206;6.888;2024-02-21T11:02:16;10.50;99.90
5246;DHT22;54412;51.206;6.888;2024-02-21T11:04:43;10.50;99.90
5246;DHT22;54412;51.206;6.888;2024-02-21T11:07:10;10.60;99.90
5246;DHT22;54412;51.206;6.888;2024-02-21T11:09:35;10.70;99.90
5246;DHT22;54412;51.206;6.888;2024-02-21T11:12:05;10.80;99.90
5246;DHT22;54412;51.206;6.888;2024-02-21T11:14:32;10.80;99.90
5246;DHT22;54412;51.206;6.888;2024-02-21T11:17:17;10.70;99.90
5246;DHT22;54412;51.206;6.888;2024-02-21T11:19:44;10.90;99.90
5246;DHT22;54412;51.206;6.888;2024-02-21T11:22:20;10.90;99.90
5246;DHT22;54412;51.206;6.888;2024-02-21T11:24:48;11.00;99.90
5246;DHT22;54412;51.206;6.888;2024-02-21T11:27:20;11.10;99.90
5246;DHT22;54412;51.206;6.888;2024-02-21T11:29:55;11.00;99.90
5246;DHT22;54412;51.206;6.888;2024-02-21T11:32:22;11.10;99.90
5246;DHT22;54412;51.206;6.888;2024-02-21T11:37:33;11.00;99.90
5246;DHT22;54412;51.206;6.888;2024-02-21T11:40:02;10.90;99.90
5246;DHT22;54412;51.206;6.888;2024-02-21T11:42:30;10.90;99.90
5246;DHT22;54412;51.206;6.888;2024-02-21T11:44:56;10.90;99.90
5246;DHT22;54412;51.206;6.888;2024-02-21T11:47:23;10.90;99.90
5246;DHT22;54412;51.206;6.888;2024-02-21T11:49:49;11.00;99.90
5246;DHT22;54412;51.206;6.888;2024-02-21T11:52:22;10.90;99.90
5246;DHT22;54412;51.206;6.888;2024-02-21T11:54:53;10.90;99.90
5246;DHT22;54412;51.206;6.888;2024-02-21T11:57:20;10.90;99.90
5246;DHT22;54412;51.206;6.888;2024-02-21T11:59:46;10.90;99.90
5246;DHT22;54412;51.206;6.888;2024-02-21T12:02:12;10.90;99.90
5246;DHT22;54412;51.206;6.888;2024-02-21T12:04:39;11.00;99.90
5246;DHT22;54412;51.206;6.888;2024-02-21T12:07:05;10.90;99.90
5246;DHT22;54412;51.206;6.888;2024-02-21T12:09:34;10.90;99.90
5246;DHT22;54412;51.206;6.888;2024-02-21T12:12:04;11.00;99.90
5246;DHT22;54412;51.206;6.888;2024-02-21T12:14:33;10.90;99.90
5246;DHT22;54412;51.206;6.888;2024-02-21T12:17:00;10.90;99.90
5246;DHT22;54412;51.206;6.888;2024-02-21T12:19:29;11.00;99.90
5246;DHT22;54412;51.206;6.888;2024-02-21T12:21:56;11.10;99.90
5246;DHT22;54412;51.206;6.888;2024-02-21T12:24:25;11.10;99.90
5246;DHT22;54412;51.206;6.888;2024-02-21T12:26:52;11.10;99.90
5246;DHT22;54412;51.206;6.888;2024-02-21T12:29:22;11.10;99.90
5246;DHT22;54412;51.206;6.888;2024-02-21T12:31:50;11.10;99.90
5246;DHT22;54412;51.206;6.888;2024-02-21T12:34:16;11.20;99.90
5246;DHT22;54412;51.206;6.888;2024-02-21T12:36:43;11.30;99.90
5246;DHT22;54412;51.206;6.888;2024-02-21T12:39:10;11.40;99.90
5246;DHT22;54412;51.206;6.888;2024-02-21T12:41:37;11.50;99.90
5246;DHT22;54412;51.206;6.888;2024-02-21T12:44:10;11.40;99.90
5246;DHT22;54412;51.206;6.888;2024-02-21T12:46:37;11.50;99.90
5246;DHT22;54412;51.206;6.888;2024-02-21T12:49:05;11.70;99.90
5246;DHT22;54412;51.206;6.888;2024-02-21T12:51:34;11.70;99.90
5246;DHT22;54412;51.206;6.888;2024-02-21T12:54:00;11.80;99.90
5246;DHT22;54412;51.206;6.888;2024-02-21T12:56:28;11.80;99.90
5246;DHT22;54412;51.206;6.888;2024-02-21T12:58:55;11.90;99.90
5246;DHT22;54412;51.206;6.888;2024-02-21T13:01:21;11.90;99.90
5246;DHT22;54412;51.206;6.888;2024-02-21T13:03:47;12.10;99.90
5246;DHT22;54412;51.206;6.888;2024-02-21T13:06:13;12.10;99.90
5246;DHT22;54412;51.206;6.888;2024-02-21T13:08:39;12.10;99.90
5246;DHT22;54412;51.206;6.888;2024-02-21T13:11:05;12.30;99.90
5246;DHT22;54412;51.206;6.888;2024-02-21T13:13:31;12.40;99.90
5246;DHT22;54412;51.206;6.888;2024-02-21T13:15:58;12.50;99.90
5246;DHT22;54412;51.206;6.888;2024-02-21T13:18:24;12.60;99.90
5246;DHT22;54412;51.206;6.888;2024-02-21T13:20:49;12.50;99.90
5246;DHT22;54412;51.206;6.888;2024-02-21T13:23:15;12.50;99.90
5246;DHT22;54412;51.206;6.888;2024-02-21T13:25:41;12.60;99.90
5246;DHT22;54412;51.206;6.888;2024-02-21T13:28:06;12.60;99.90
5246;DHT22;54412;51.206;6.888;2024-02-21T13:30:32;12.70;99.90
5246;DHT22;54412;51.206;6.888;2024-02-21T13:32:58;12.80;99.90
5246;DHT22;54412;51.206;6.888;2024-02-21T13:35:24;12.80;99.90
5246;DHT22;54412;51.206;6.888;2024-02-21T13:37:49;12.90;99.90
5246;DHT22;54412;51.206;6.888;2024-02-21T13:40:15;12.80;99.90
5246;DHT22;54412;51.206;6.888;2024-02-21T13:42:41;12.80;99.90
5246;DHT22;54412;51.206;6.888;2024-02-21T13:45:08;12.50;99.90
5246;DHT22;54412;51.206;6.888;2024-02-21T13:47:35;12.60;99.90
5246;DHT22;54412;51.206;6.888;2024-02-21T13:50:07;12.60;99.90
5246;DHT22;54412;51.206;6.888;2024-02-21T13:52:43;12.40;99.90
5246;DHT22;54412;51.206;6.888;2024-02-21T13:55:09;12.40;99.90
5246;DHT22;54412;51.206;6.888;2024-02-21T13:57:35;12.10;99.90
5246;DHT22;54412;51.206;6.888;2024-02-21T14:00:02;12.10;99.90
5246;DHT22;54412;51.206;6.888;2024-02-21T14:02:29;12.20;99.90
5246;DHT22;54412;51.206;6.888;2024-02-21T14:04:54;12.10;99.90
5246;DHT22;54412;51.206;6.888;2024-02-21T14:07:20;12.20;99.90
5246;DHT22;54412;51.206;6.888;2024-02-21T14:09:46;12.00;99.90
5246;DHT22;54412;51.206;6.888;2024-02-21T14:12:11;12.00;99.90
5246;DHT22;54412;51.206;6.888;2024-02-21T14:14:37;12.00;99.90
5246;DHT22;54412;51.206;6.888;2024-02-21T14:17:03;12.10;99.90
5246;DHT22;54412;51.206;6.888;2024-02-21T14:19:30;12.10;99.90
5246;DHT22;54412;51.206;6.888;2024-02-21T14:21:56;12.00;99.90
5246;DHT22;54412;51.206;6.888;2024-02-21T14:24:22;12.10;99.90
5246;DHT22;54412;51.206;6.888;2024-02-21T14:26:49;12.10;99.90
5246;DHT22;54412;51.206;6.888;2024-02-21T14:29:14;12.10;99.90
5246;DHT22;54412;51.206;6.888;2024-02-21T14:31:40;12.20;99.90
5246;DHT22;54412;51.206;6.888;2024-02-21T14:34:06;12.20;99.90
5246;DHT22;54412;51.206;6.888;2024-02-21T14:36:33;12.10;99.90
5246;DHT22;54412;51.206;6.888;2024-02-21T14:38:59;12.10;99.90
5246;DHT22;54412;51.206;6.888;2024-02-21T14:41:24;12.10;99.90
5246;DHT22;54412;51.206;6.888;2024-02-21T14:43:50;12.10;99.90
5246;DHT22;54412;51.206;6.888;2024-02-21T14:46:17;12.10;99.90
5246;DHT22;54412;51.206;6.888;2024-02-21T14:48:43;12.20;99.90
5246;DHT22;54412;51.206;6.888;2024-02-21T14:51:10;12.10;99.90
5246;DHT22;54412;51.206;6.888;2024-02-21T14:53:36;12.00;99.90
5246;DHT22;54412;51.206;6.888;2024-02-21T14:56:02;12.10;99.90
5246;DHT22;54412;51.206;6.888;2024-02-21T14:58:28;12.10;99.90
5246;DHT22;54412;51.206;6.888;2024-02-21T15:00:53;12.00;99.90
5246;DHT22;54412;51.206;6.888;2024-02-21T15:03:19;12.10;99.90
5246;DHT22;54412;51.206;6.888;2024-02-21T15:05:46;12.10;99.90
5246;DHT22;54412;51.206;6.888;2024-02-21T15:08:12;12.10;99.90
5246;DHT22;54412;51.206;6.888;2024-02-21T15:10:42;12.00;99.90
5246;DHT22;54412;51.206;6.888;2024-02-21T15:13:08;12.00;99.90
5246;DHT22;54412;51.206;6.888;2024-02-21T15:15:34;12.10;99.90
5246;DHT22;54412;51.206;6.888;2024-02-21T15:18:00;11.90;99.90
5246;DHT22;54412;51.206;6.888;2024-02-21T15:20:25;11.90;99.90
5246;DHT22;54412;51.206;6.888;2024-02-21T15:22:53;11.80;99.90
5246;DHT22;54412;51.206;6.888;2024-02-21T15:25:19;11.80;99.90
5246;DHT22;54412;51.206;6.888;2024-02-21T15:27:45;11.80;99.90
5246;DHT22;54412;51.206;6.888;2024-02-21T15:30:11;11.70;99.90
5246;DHT22;54412;51.206;6.888;2024-02-21T15:32:40;11.80;99.90
5246;DHT22;54412;51.206;6.888;2024-02-21T15:35:09;11.80;99.90
5246;DHT22;54412;51.206;6.888;2024-02-21T15:37:36;11.80;99.90
5246;DHT22;54412;51.206;6.888;2024-02-21T15:40:02;11.80;99.90
5246;DHT22;54412;51.206;6.888;2024-02-21T15:42:29;11.80;99.90
5246;DHT22;54412;51.206;6.888;2024-02-21T15:44:57;11.80;99.90
5246;DHT22;54412;51.206;6.888;2024-02-21T15:47:28;11.80;99.90
5246;DHT22;54412;51.206;6.888;2024-02-21T15:49:54;11.80;99.90
5246;DHT22;54412;51.206;6.888;2024-02-21T15:52:20;11.80;99.90
5246;DHT22;54412;51.206;6.888;2024-02-21T15:54:46;11.80;99.90